Salem, Arkansas
Current Conditions -  °F | °C
As of 3:53 PM on Monday 26 Jan 2015 (Local Time) from KUNO Reporting Station
Clear Clear  
Wind Chill: 53°   Ceiling: Unl
Heat Index: 53°   Visibility: 10mi
Dew Point: 30°   Wind: 17mph
Humidity: 41%   Direction: 250°WSW
Pressure: 29.87"   Gusts: 23mph
Location:  36.37°N, 91.82°W
Report Text: KUNO 262153Z AUTO 25015G20KT 10SM CLR 12/M01 A2987 RMK AO2 SLP119 T01171011
Loading
Personal Weather Stations






























Interactive Weather Map New forecast layout! Learn more

10-Day Weather Forecast

Advertisements
Track Severe Weather on mobile